sensor_id;sensor_type;location;lat;lon;timestamp;pressure;altitude;pressure_sealevel;temperature;humidity
21203;BME280;10759;51.982;9.232;2023-06-14T00:00:37;100376.19;;;17.05;56.29
21203;BME280;10759;51.982;9.232;2023-06-14T00:03:07;100374.81;;;17.12;55.58
21203;BME280;10759;51.982;9.232;2023-06-14T00:05:36;100382.66;;;17.16;55.88
21203;BME280;10759;51.982;9.232;2023-06-14T00:08:07;100378.28;;;17.28;55.18
21203;BME280;10759;51.982;9.232;2023-06-14T00:10:36;100379.63;;;17.35;54.62
21203;BME280;10759;51.982;9.232;2023-06-14T00:13:04;100268.59;;;16.52;55.87
21203;BME280;10759;51.982;9.232;2023-06-14T00:15:35;100389.50;;;17.22;55.92
21203;BME280;10759;51.982;9.232;2023-06-14T00:18:03;100388.88;;;16.90;57.05
21203;BME280;10759;51.982;9.232;2023-06-14T00:20:32;100390.16;;;16.84;57.50
21203;BME280;10759;51.982;9.232;2023-06-14T00:23:00;100385.69;;;16.69;58.58
21203;BME280;10759;51.982;9.232;2023-06-14T00:25:28;100354.28;;;16.38;58.89
21203;BME280;10759;51.982;9.232;2023-06-14T00:27:57;100390.69;;;16.46;59.68
21203;BME280;10759;51.982;9.232;2023-06-14T00:30:25;100389.03;;;16.44;60.22
21203;BME280;10759;51.982;9.232;2023-06-14T00:32:59;100398.06;;;16.44;59.83
21203;BME280;10759;51.982;9.232;2023-06-14T00:35:27;100401.91;;;16.40;59.97
21203;BME280;10759;51.982;9.232;2023-06-14T00:37:56;100399.56;;;16.34;60.44
21203;BME280;10759;51.982;9.232;2023-06-14T00:40:24;100392.69;;;16.28;60.12
21203;BME280;10759;51.982;9.232;2023-06-14T00:42:52;100395.69;;;16.24;60.62
21203;BME280;10759;51.982;9.232;2023-06-14T00:45:20;100400.91;;;16.13;60.63
21203;BME280;10759;51.982;9.232;2023-06-14T00:47:49;100399.47;;;15.91;62.26
21203;BME280;10759;51.982;9.232;2023-06-14T00:50:20;100401.38;;;15.89;62.65
21203;BME280;10759;51.982;9.232;2023-06-14T00:52:49;100397.22;;;15.83;63.08
21203;BME280;10759;51.982;9.232;2023-06-14T00:55:17;100402.81;;;15.80;63.88
21203;BME280;10759;51.982;9.232;2023-06-14T00:57:45;100403.69;;;15.81;63.82
21203;BME280;10759;51.982;9.232;2023-06-14T01:00:14;100402.97;;;15.77;64.29
21203;BME280;10759;51.982;9.232;2023-06-14T01:02:43;100406.59;;;15.78;64.43
21203;BME280;10759;51.982;9.232;2023-06-14T01:05:11;100400.56;;;15.57;65.23
21203;BME280;10759;51.982;9.232;2023-06-14T01:07:51;100365.50;;;15.25;65.99
21203;BME280;10759;51.982;9.232;2023-06-14T01:10:32;100407.69;;;15.58;65.96
21203;BME280;10759;51.982;9.232;2023-06-14T01:13:07;100399.50;;;15.59;65.92
21203;BME280;10759;51.982;9.232;2023-06-14T01:15:39;100402.84;;;15.49;66.47
21203;BME280;10759;51.982;9.232;2023-06-14T01:18:08;100402.50;;;15.39;67.06
21203;BME280;10759;51.982;9.232;2023-06-14T01:20:44;100398.66;;;15.43;66.88
21203;BME280;10759;51.982;9.232;2023-06-14T01:23:15;100403.97;;;15.44;66.52
21203;BME280;10759;51.982;9.232;2023-06-14T01:25:43;100400.94;;;15.35;66.80
21203;BME280;10759;51.982;9.232;2023-06-14T01:28:11;100366.47;;;15.08;67.09
21203;BME280;10759;51.982;9.232;2023-06-14T01:30:40;100397.88;;;15.25;67.53
21203;BME280;10759;51.982;9.232;2023-06-14T01:33:14;100399.72;;;15.24;67.69
21203;BME280;10759;51.982;9.232;2023-06-14T01:35:44;100398.00;;;15.23;67.98
21203;BME280;10759;51.982;9.232;2023-06-14T01:38:15;100399.19;;;15.02;68.67
21203;BME280;10759;51.982;9.232;2023-06-14T01:40:44;100405.28;;;15.06;68.37
21203;BME280;10759;51.982;9.232;2023-06-14T01:43:13;100350.34;;;14.75;68.24
21203;BME280;10759;51.982;9.232;2023-06-14T01:45:42;100403.72;;;15.01;68.58
21203;BME280;10759;51.982;9.232;2023-06-14T01:48:10;100371.69;;;14.79;68.32
21203;BME280;10759;51.982;9.232;2023-06-14T01:50:39;100402.22;;;14.96;68.96
21203;BME280;10759;51.982;9.232;2023-06-14T01:53:08;100410.56;;;14.91;69.10
21203;BME280;10759;51.982;9.232;2023-06-14T01:55:40;100412.41;;;14.75;70.08
21203;BME280;10759;51.982;9.232;2023-06-14T01:58:10;100417.13;;;14.87;69.75
21203;BME280;10759;51.982;9.232;2023-06-14T02:00:38;100410.75;;;14.72;70.03
21203;BME280;10759;51.982;9.232;2023-06-14T02:03:07;100413.25;;;14.75;70.04
21203;BME280;10759;51.982;9.232;2023-06-14T02:05:35;100406.28;;;14.71;70.14
21203;BME280;10759;51.982;9.232;2023-06-14T02:08:05;100413.69;;;14.68;70.06
21203;BME280;10759;51.982;9.232;2023-06-14T02:10:33;100295.59;;;13.90;70.33
21203;BME280;10759;51.982;9.232;2023-06-14T02:13:04;100422.03;;;14.46;70.82
21203;BME280;10759;51.982;9.232;2023-06-14T02:15:32;100423.91;;;14.44;71.12
21203;BME280;10759;51.982;9.232;2023-06-14T02:18:02;100422.19;;;14.43;71.32
21203;BME280;10759;51.982;9.232;2023-06-14T02:20:32;100408.63;;;14.27;72.00
21203;BME280;10759;51.982;9.232;2023-06-14T02:23:00;100390.25;;;14.17;71.78
21203;BME280;10759;51.982;9.232;2023-06-14T02:25:30;100424.03;;;14.59;70.69
21203;BME280;10759;51.982;9.232;2023-06-14T02:27:58;100432.19;;;14.58;70.45
21203;BME280;10759;51.982;9.232;2023-06-14T02:30:27;100092.75;;;12.36;70.88
21203;BME280;10759;51.982;9.232;2023-06-14T02:32:55;100429.56;;;14.39;71.13
21203;BME280;10759;51.982;9.232;2023-06-14T02:35:23;100351.22;;;13.74;72.28
21203;BME280;10759;51.982;9.232;2023-06-14T02:37:55;100410.72;;;14.04;72.36
21203;BME280;10759;51.982;9.232;2023-06-14T02:40:23;100433.06;;;14.24;72.67
21203;BME280;10759;51.982;9.232;2023-06-14T02:42:51;100436.00;;;14.19;72.82
21203;BME280;10759;51.982;9.232;2023-06-14T02:45:19;100436.00;;;14.19;72.85
21203;BME280;10759;51.982;9.232;2023-06-14T02:47:49;100434.66;;;14.10;73.13
21203;BME280;10759;51.982;9.232;2023-06-14T02:50:17;100438.22;;;14.11;73.54
21203;BME280;10759;51.982;9.232;2023-06-14T02:52:45;100440.13;;;14.09;73.39
21203;BME280;10759;51.982;9.232;2023-06-14T02:55:14;100345.50;;;13.63;73.07
21203;BME280;10759;51.982;9.232;2023-06-14T02:57:42;100406.28;;;13.86;72.98
21203;BME280;10759;51.982;9.232;2023-06-14T03:00:11;100438.53;;;14.05;73.11
21203;BME280;10759;51.982;9.232;2023-06-14T03:02:42;100403.50;;;13.87;72.65
21203;BME280;10759;51.982;9.232;2023-06-14T03:05:13;100420.94;;;14.15;71.88
21203;BME280;10759;51.982;9.232;2023-06-14T03:07:41;100458.19;;;14.24;72.09
21203;BME280;10759;51.982;9.232;2023-06-14T03:10:12;100454.63;;;14.24;72.16
21203;BME280;10759;51.982;9.232;2023-06-14T03:12:42;100463.00;;;14.17;72.70
21203;BME280;10759;51.982;9.232;2023-06-14T03:15:11;100457.09;;;14.11;72.15
21203;BME280;10759;51.982;9.232;2023-06-14T03:17:44;100458.19;;;14.07;72.77
21203;BME280;10759;51.982;9.232;2023-06-14T03:20:16;100458.97;;;14.09;73.05
21203;BME280;10759;51.982;9.232;2023-06-14T03:22:45;100459.22;;;14.04;73.28
21203;BME280;10759;51.982;9.232;2023-06-14T03:25:15;100458.81;;;13.94;73.62
21203;BME280;10759;51.982;9.232;2023-06-14T03:27:44;100455.09;;;13.97;72.96
21203;BME280;10759;51.982;9.232;2023-06-14T03:30:13;100456.75;;;14.00;73.46
21203;BME280;10759;51.982;9.232;2023-06-14T03:32:45;100365.44;;;13.41;74.90
21203;BME280;10759;51.982;9.232;2023-06-14T03:35:13;100431.50;;;13.66;74.28
21203;BME280;10759;51.982;9.232;2023-06-14T03:37:47;100392.84;;;13.49;75.10
21203;BME280;10759;51.982;9.232;2023-06-14T03:40:17;100461.59;;;14.10;74.65
21203;BME280;10759;51.982;9.232;2023-06-14T03:42:49;100461.75;;;14.07;74.88
21203;BME280;10759;51.982;9.232;2023-06-14T03:45:18;100456.69;;;14.01;74.66
21203;BME280;10759;51.982;9.232;2023-06-14T03:47:47;100460.81;;;14.08;74.14
21203;BME280;10759;51.982;9.232;2023-06-14T03:50:15;100453.81;;;14.04;73.93
21203;BME280;10759;51.982;9.232;2023-06-14T03:52:44;100469.69;;;14.10;73.72
21203;BME280;10759;51.982;9.232;2023-06-14T03:55:13;100470.56;;;14.11;74.37
21203;BME280;10759;51.982;9.232;2023-06-14T03:57:46;100474.19;;;14.10;75.00
21203;BME280;10759;51.982;9.232;2023-06-14T04:00:16;100475.16;;;14.09;75.12
21203;BME280;10759;51.982;9.232;2023-06-14T04:02:45;100464.31;;;14.10;75.33
21203;BME280;10759;51.982;9.232;2023-06-14T04:05:13;100391.84;;;13.69;76.30
21203;BME280;10759;51.982;9.232;2023-06-14T04:07:46;100484.44;;;14.38;75.50
21203;BME280;10759;51.982;9.232;2023-06-14T04:10:17;100490.72;;;14.56;74.82
21203;BME280;10759;51.982;9.232;2023-06-14T04:12:47;100496.06;;;14.73;74.39
21203;BME280;10759;51.982;9.232;2023-06-14T04:15:16;100471.06;;;14.87;73.85
21203;BME280;10759;51.982;9.232;2023-06-14T04:17:50;100482.97;;;15.16;72.10
21203;BME280;10759;51.982;9.232;2023-06-14T04:20:21;100499.34;;;15.45;71.37
21203;BME280;10759;51.982;9.232;2023-06-14T04:22:50;100422.63;;;15.17;70.66
21203;BME280;10759;51.982;9.232;2023-06-14T04:25:21;100496.31;;;15.67;70.28
21203;BME280;10759;51.982;9.232;2023-06-14T04:27:52;100426.03;;;15.37;70.03
21203;BME280;10759;51.982;9.232;2023-06-14T04:30:21;100507.72;;;16.04;69.29
21203;BME280;10759;51.982;9.232;2023-06-14T04:32:54;100499.53;;;15.89;69.88
21203;BME280;10759;51.982;9.232;2023-06-14T04:35:23;100467.34;;;16.01;68.57
21203;BME280;10759;51.982;9.232;2023-06-14T04:37:53;100516.97;;;17.05;65.56
21203;BME280;10759;51.982;9.232;2023-06-14T04:40:23;100523.38;;;17.88;61.32
21203;BME280;10759;51.982;9.232;2023-06-14T04:42:52;100530.06;;;17.83;61.64
21203;BME280;10759;51.982;9.232;2023-06-14T04:45:21;100531.63;;;18.54;56.48
21203;BME280;10759;51.982;9.232;2023-06-14T04:47:50;100539.41;;;18.85;55.32
21203;BME280;10759;51.982;9.232;2023-06-14T04:50:26;100535.97;;;19.59;53.08
21203;BME280;10759;51.982;9.232;2023-06-14T04:52:53;100544.16;;;19.95;51.38
21203;BME280;10759;51.982;9.232;2023-06-14T04:55:21;100544.84;;;20.34;50.28
21203;BME280;10759;51.982;9.232;2023-06-14T04:57:52;100537.09;;;20.17;49.95
21203;BME280;10759;51.982;9.232;2023-06-14T05:00:21;100407.94;;;19.50;49.34
21203;BME280;10759;51.982;9.232;2023-06-14T05:02:50;100543.56;;;20.51;47.60
21203;BME280;10759;51.982;9.232;2023-06-14T05:05:20;100536.72;;;19.61;49.96
21203;BME280;10759;51.982;9.232;2023-06-14T05:07:48;100468.88;;;19.09;50.19
21203;BME280;10759;51.982;9.232;2023-06-14T05:10:17;100513.63;;;19.17;51.27
21203;BME280;10759;51.982;9.232;2023-06-14T05:12:46;100545.41;;;18.23;53.79
21203;BME280;10759;51.982;9.232;2023-06-14T05:15:18;100537.66;;;17.49;57.58
21203;BME280;10759;51.982;9.232;2023-06-14T05:17:47;100544.72;;;17.37;59.10
21203;BME280;10759;51.982;9.232;2023-06-14T05:20:21;100542.28;;;17.32;59.71
21203;BME280;10759;51.982;9.232;2023-06-14T05:22:52;100542.19;;;17.05;60.04
21203;BME280;10759;51.982;9.232;2023-06-14T05:25:20;100542.88;;;16.64;60.33
21203;BME280;10759;51.982;9.232;2023-06-14T05:27:48;100553.06;;;16.45;61.48
21203;BME280;10759;51.982;9.232;2023-06-14T05:30:18;100436.81;;;16.15;61.65
21203;BME280;10759;51.982;9.232;2023-06-14T05:32:46;100556.22;;;16.67;61.81
21203;BME280;10759;51.982;9.232;2023-06-14T05:35:14;100546.25;;;16.84;61.46
21203;BME280;10759;51.982;9.232;2023-06-14T05:37:43;100554.69;;;17.36;59.90
21203;BME280;10759;51.982;9.232;2023-06-14T05:40:11;100560.75;;;16.67;61.87
21203;BME280;10759;51.982;9.232;2023-06-14T05:42:39;100544.88;;;16.61;61.53
21203;BME280;10759;51.982;9.232;2023-06-14T05:45:08;100499.06;;;16.13;62.92
21203;BME280;10759;51.982;9.232;2023-06-14T05:47:37;100565.03;;;17.01;62.28
21203;BME280;10759;51.982;9.232;2023-06-14T05:50:06;100566.25;;;16.81;62.94
21203;BME280;10759;51.982;9.232;2023-06-14T05:52:34;100570.75;;;17.11;60.22
21203;BME280;10759;51.982;9.232;2023-06-14T05:55:02;100568.09;;;17.67;60.07
21203;BME280;10759;51.982;9.232;2023-06-14T05:57:30;100570.16;;;17.63;58.31
21203;BME280;10759;51.982;9.232;2023-06-14T05:59:57;100573.44;;;16.97;60.96
21203;BME280;10759;51.982;9.232;2023-06-14T06:02:25;100571.72;;;16.49;63.41
21203;BME280;10759;51.982;9.232;2023-06-14T06:04:55;100570.06;;;16.77;63.13
21203;BME280;10759;51.982;9.232;2023-06-14T06:07:23;100573.63;;;17.22;62.69
21203;BME280;10759;51.982;9.232;2023-06-14T06:09:50;100580.22;;;17.32;60.40
21203;BME280;10759;51.982;9.232;2023-06-14T06:12:18;100580.63;;;17.41;59.46
21203;BME280;10759;51.982;9.232;2023-06-14T06:14:46;100585.75;;;17.31;60.93
21203;BME280;10759;51.982;9.232;2023-06-14T06:17:14;100593.53;;;17.93;59.47
21203;BME280;10759;51.982;9.232;2023-06-14T06:19:42;100588.41;;;17.59;61.36
21203;BME280;10759;51.982;9.232;2023-06-14T06:22:11;100561.31;;;17.59;59.08
21203;BME280;10759;51.982;9.232;2023-06-14T06:24:39;100586.00;;;17.12;61.91
21203;BME280;10759;51.982;9.232;2023-06-14T06:27:09;100587.38;;;17.19;62.35
21203;BME280;10759;51.982;9.232;2023-06-14T06:29:39;100586.38;;;17.20;61.48
21203;BME280;10759;51.982;9.232;2023-06-14T06:32:07;100583.69;;;17.63;60.62
21203;BME280;10759;51.982;9.232;2023-06-14T06:34:35;100590.19;;;17.60;61.14
21203;BME280;10759;51.982;9.232;2023-06-14T06:37:04;100576.56;;;17.48;61.21
21203;BME280;10759;51.982;9.232;2023-06-14T06:39:33;100601.09;;;17.45;60.94
21203;BME280;10759;51.982;9.232;2023-06-14T06:42:01;100573.44;;;17.11;63.06
21203;BME280;10759;51.982;9.232;2023-06-14T06:44:35;100596.84;;;17.84;61.29
21203;BME280;10759;51.982;9.232;2023-06-14T06:47:03;100605.66;;;17.44;60.50
21203;BME280;10759;51.982;9.232;2023-06-14T06:49:31;100600.53;;;17.54;60.88
21203;BME280;10759;51.982;9.232;2023-06-14T06:52:00;100596.34;;;17.77;61.56
21203;BME280;10759;51.982;9.232;2023-06-14T06:54:28;100601.00;;;17.75;60.00
21203;BME280;10759;51.982;9.232;2023-06-14T06:56:58;100607.31;;;17.61;59.47
21203;BME280;10759;51.982;9.232;2023-06-14T06:59:26;100619.38;;;17.98;59.00
21203;BME280;10759;51.982;9.232;2023-06-14T07:01:54;100607.09;;;17.93;60.29
21203;BME280;10759;51.982;9.232;2023-06-14T07:04:22;100610.22;;;18.14;58.02
21203;BME280;10759;51.982;9.232;2023-06-14T07:06:50;100606.66;;;18.13;57.50
21203;BME280;10759;51.982;9.232;2023-06-14T07:09:18;100612.66;;;18.18;56.16
21203;BME280;10759;51.982;9.232;2023-06-14T07:11:47;100623.56;;;18.04;56.04
21203;BME280;10759;51.982;9.232;2023-06-14T07:14:16;100610.22;;;17.72;58.13
21203;BME280;10759;51.982;9.232;2023-06-14T07:16:44;100612.59;;;18.06;58.09
21203;BME280;10759;51.982;9.232;2023-06-14T07:19:13;100617.50;;;18.13;59.09
21203;BME280;10759;51.982;9.232;2023-06-14T07:21:41;100626.25;;;18.04;57.79
21203;BME280;10759;51.982;9.232;2023-06-14T07:24:09;100622.38;;;18.35;59.17
21203;BME280;10759;51.982;9.232;2023-06-14T07:26:37;100625.53;;;18.69;56.42
21203;BME280;10759;51.982;9.232;2023-06-14T07:29:05;100622.28;;;18.37;56.54
21203;BME280;10759;51.982;9.232;2023-06-14T07:31:34;100622.94;;;19.07;54.87
21203;BME280;10759;51.982;9.232;2023-06-14T07:34:02;100624.69;;;19.34;53.76
21203;BME280;10759;51.982;9.232;2023-06-14T07:36:30;100619.38;;;19.33;53.00
21203;BME280;10759;51.982;9.232;2023-06-14T07:38:58;100630.38;;;18.51;55.64
21203;BME280;10759;51.982;9.232;2023-06-14T07:41:26;100630.13;;;18.69;54.51
21203;BME280;10759;51.982;9.232;2023-06-14T07:43:54;100630.13;;;19.08;53.74
21203;BME280;10759;51.982;9.232;2023-06-14T07:46:22;100612.91;;;18.55;52.95
21203;BME280;10759;51.982;9.232;2023-06-14T07:48:51;100632.44;;;18.87;52.80
21203;BME280;10759;51.982;9.232;2023-06-14T07:51:19;100640.34;;;19.56;52.68
21203;BME280;10759;51.982;9.232;2023-06-14T07:53:48;100646.22;;;19.50;50.57
21203;BME280;10759;51.982;9.232;2023-06-14T07:56:16;100640.97;;;19.21;51.44
21203;BME280;10759;51.982;9.232;2023-06-14T07:58:44;100639.47;;;19.56;50.64
21203;BME280;10759;51.982;9.232;2023-06-14T08:01:11;100638.94;;;19.76;50.45
21203;BME280;10759;51.982;9.232;2023-06-14T08:03:40;100647.09;;;19.25;52.37
21203;BME280;10759;51.982;9.232;2023-06-14T08:06:09;100631.19;;;19.06;51.62
21203;BME280;10759;51.982;9.232;2023-06-14T08:08:37;100641.84;;;19.22;52.56
21203;BME280;10759;51.982;9.232;2023-06-14T08:11:05;100634.50;;;20.12;50.00
21203;BME280;10759;51.982;9.232;2023-06-14T08:13:33;100636.50;;;20.34;47.81
21203;BME280;10759;51.982;9.232;2023-06-14T08:16:01;100576.53;;;19.36;49.62
21203;BME280;10759;51.982;9.232;2023-06-14T08:18:31;100526.44;;;19.40;48.61
21203;BME280;10759;51.982;9.232;2023-06-14T08:20:59;100633.59;;;19.62;49.09
21203;BME280;10759;51.982;9.232;2023-06-14T08:23:28;100631.38;;;20.05;49.70
21203;BME280;10759;51.982;9.232;2023-06-14T08:25:56;100639.38;;;20.20;48.88
21203;BME280;10759;51.982;9.232;2023-06-14T08:28:24;100635.09;;;20.65;47.29
21203;BME280;10759;51.982;9.232;2023-06-14T08:30:52;100630.13;;;20.59;47.40
21203;BME280;10759;51.982;9.232;2023-06-14T08:33:20;100638.19;;;20.96;46.88
21203;BME280;10759;51.982;9.232;2023-06-14T08:35:48;100636.13;;;20.75;45.26
21203;BME280;10759;51.982;9.232;2023-06-14T08:38:16;100640.16;;;20.70;46.14
21203;BME280;10759;51.982;9.232;2023-06-14T08:40:48;100647.50;;;20.32;47.00
21203;BME280;10759;51.982;9.232;2023-06-14T08:43:18;100636.38;;;20.72;45.29
21203;BME280;10759;51.982;9.232;2023-06-14T08:45:47;100645.53;;;20.34;44.75
21203;BME280;10759;51.982;9.232;2023-06-14T08:48:18;100639.75;;;20.39;44.98
21203;BME280;10759;51.982;9.232;2023-06-14T08:50:46;100626.31;;;20.25;44.52
21203;BME280;10759;51.982;9.232;2023-06-14T08:53:19;100631.03;;;20.10;45.44
21203;BME280;10759;51.982;9.232;2023-06-14T08:55:48;100628.91;;;20.26;45.17
21203;BME280;10759;51.982;9.232;2023-06-14T08:58:17;100639.94;;;20.49;44.89
21203;BME280;10759;51.982;9.232;2023-06-14T09:00:46;100625.31;;;20.63;45.49
21203;BME280;10759;51.982;9.232;2023-06-14T09:03:14;100607.72;;;20.55;44.21
21203;BME280;10759;51.982;9.232;2023-06-14T09:05:42;100627.53;;;21.51;43.65
21203;BME280;10759;51.982;9.232;2023-06-14T09:08:11;100635.03;;;21.25;43.10
21203;BME280;10759;51.982;9.232;2023-06-14T09:10:40;100609.81;;;20.87;43.08
21203;BME280;10759;51.982;9.232;2023-06-14T09:13:09;100573.19;;;21.02;43.37
21203;BME280;10759;51.982;9.232;2023-06-14T09:15:37;100619.31;;;21.17;42.24
21203;BME280;10759;51.982;9.232;2023-06-14T09:18:05;100640.66;;;20.99;43.53
21203;BME280;10759;51.982;9.232;2023-06-14T09:20:33;100631.66;;;21.79;43.83
21203;BME280;10759;51.982;9.232;2023-06-14T09:23:02;100630.16;;;21.75;43.07
21203;BME280;10759;51.982;9.232;2023-06-14T09:25:32;100639.69;;;22.14;42.87
21203;BME280;10759;51.982;9.232;2023-06-14T09:28:10;100642.28;;;22.04;42.12
21203;BME280;10759;51.982;9.232;2023-06-14T09:30:38;100618.47;;;22.06;42.75
21203;BME280;10759;51.982;9.232;2023-06-14T09:33:06;100637.69;;;22.16;43.80
21203;BME280;10759;51.982;9.232;2023-06-14T09:35:35;100641.63;;;21.33;44.51
21203;BME280;10759;51.982;9.232;2023-06-14T09:38:03;100644.66;;;21.64;43.81
21203;BME280;10759;51.982;9.232;2023-06-14T09:40:34;100643.53;;;22.12;42.98
21203;BME280;10759;51.982;9.232;2023-06-14T09:43:06;100650.50;;;21.82;41.18
21203;BME280;10759;51.982;9.232;2023-06-14T09:45:37;100650.25;;;21.74;42.86
21203;BME280;10759;51.982;9.232;2023-06-14T09:48:06;100639.06;;;22.11;42.87
21203;BME280;10759;51.982;9.232;2023-06-14T09:50:35;100638.56;;;22.28;43.12
21203;BME280;10759;51.982;9.232;2023-06-14T09:53:05;100642.69;;;21.66;43.06
21203;BME280;10759;51.982;9.232;2023-06-14T09:55:35;100639.59;;;21.82;43.52
21203;BME280;10759;51.982;9.232;2023-06-14T09:58:06;100595.31;;;21.90;43.54
21203;BME280;10759;51.982;9.232;2023-06-14T10:00:36;100631.03;;;22.20;42.82
21203;BME280;10759;51.982;9.232;2023-06-14T10:03:12;100639.59;;;21.59;43.95
21203;BME280;10759;51.982;9.232;2023-06-14T10:05:43;100630.09;;;21.30;43.11
21203;BME280;10759;51.982;9.232;2023-06-14T10:08:14;100637.19;;;21.43;44.34
21203;BME280;10759;51.982;9.232;2023-06-14T10:10:43;100631.78;;;21.77;44.42
21203;BME280;10759;51.982;9.232;2023-06-14T10:13:12;100631.91;;;21.87;42.64
21203;BME280;10759;51.982;9.232;2023-06-14T10:15:50;100635.47;;;21.87;43.19
21203;BME280;10759;51.982;9.232;2023-06-14T10:18:27;100592.16;;;22.17;43.31
21203;BME280;10759;51.982;9.232;2023-06-14T10:21:05;100641.69;;;22.23;43.41
21203;BME280;10759;51.982;9.232;2023-06-14T10:23:37;100634.44;;;22.45;42.78
21203;BME280;10759;51.982;9.232;2023-06-14T10:26:07;100628.41;;;22.30;42.26
21203;BME280;10759;51.982;9.232;2023-06-14T10:28:37;100625.03;;;22.70;41.09
21203;BME280;10759;51.982;9.232;2023-06-14T10:31:07;100582.06;;;21.85;41.13
21203;BME280;10759;51.982;9.232;2023-06-14T10:33:39;100631.16;;;21.85;42.85
21203;BME280;10759;51.982;9.232;2023-06-14T10:36:25;100634.50;;;21.55;42.42
21203;BME280;10759;51.982;9.232;2023-06-14T10:38:58;100628.28;;;21.53;41.91
21203;BME280;10759;51.982;9.232;2023-06-14T10:41:27;100631.78;;;21.77;41.82
21203;BME280;10759;51.982;9.232;2023-06-14T10:47:23;100631.25;;;21.95;41.59
21203;BME280;10759;51.982;9.232;2023-06-14T10:49:53;100558.13;;;21.89;41.13
21203;BME280;10759;51.982;9.232;2023-06-14T10:52:23;100564.00;;;21.61;41.78
21203;BME280;10759;51.982;9.232;2023-06-14T10:55:11;100615.34;;;22.34;40.38
21203;BME280;10759;51.982;9.232;2023-06-14T10:57:43;100615.91;;;22.60;41.02
21203;BME280;10759;51.982;9.232;2023-06-14T11:00:18;100617.69;;;22.38;40.22
21203;BME280;10759;51.982;9.232;2023-06-14T11:03:28;100614.41;;;21.44;42.38
21203;BME280;10759;51.982;9.232;2023-06-14T11:05:59;100621.75;;;21.67;42.24
21203;BME280;10759;51.982;9.232;2023-06-14T11:11:15;100611.03;;;22.20;42.33
21203;BME280;10759;51.982;9.232;2023-06-14T11:13:45;100610.56;;;21.92;40.93
21203;BME280;10759;51.982;9.232;2023-06-14T11:16:15;100573.59;;;22.11;42.21
21203;BME280;10759;51.982;9.232;2023-06-14T11:18:45;100607.94;;;22.24;41.20
21203;BME280;10759;51.982;9.232;2023-06-14T11:21:15;100579.47;;;22.38;40.54
21203;BME280;10759;51.982;9.232;2023-06-14T11:23:49;100608.06;;;22.87;41.45
21203;BME280;10759;51.982;9.232;2023-06-14T11:26:24;100604.44;;;22.34;40.30
21203;BME280;10759;51.982;9.232;2023-06-14T11:28:57;100605.56;;;22.31;40.04
21203;BME280;10759;51.982;9.232;2023-06-14T11:31:26;100600.28;;;22.50;39.67
21203;BME280;10759;51.982;9.232;2023-06-14T11:33:56;100598.19;;;22.75;40.40
21203;BME280;10759;51.982;9.232;2023-06-14T11:36:26;100573.28;;;22.68;38.51
21203;BME280;10759;51.982;9.232;2023-06-14T11:39:00;100578.31;;;23.05;39.76
21203;BME280;10759;51.982;9.232;2023-06-14T11:41:36;100602.31;;;23.02;39.00
21203;BME280;10759;51.982;9.232;2023-06-14T11:44:05;100592.56;;;22.56;38.88
21203;BME280;10759;51.982;9.232;2023-06-14T11:46:33;100589.53;;;22.70;41.13
21203;BME280;10759;51.982;9.232;2023-06-14T11:49:02;100598.53;;;23.14;39.68
21203;BME280;10759;51.982;9.232;2023-06-14T11:51:32;100593.16;;;23.33;39.68
21203;BME280;10759;51.982;9.232;2023-06-14T11:54:00;100559.19;;;23.26;39.72
21203;BME280;10759;51.982;9.232;2023-06-14T11:56:29;100602.63;;;23.29;38.08
21203;BME280;10759;51.982;9.232;2023-06-14T11:58:59;100598.66;;;22.80;39.32
21203;BME280;10759;51.982;9.232;2023-06-14T12:01:29;100592.38;;;22.36;39.27
21203;BME280;10759;51.982;9.232;2023-06-14T12:03:59;100577.53;;;22.29;39.96
21203;BME280;10759;51.982;9.232;2023-06-14T12:06:29;100593.25;;;22.69;39.69
21203;BME280;10759;51.982;9.232;2023-06-14T12:09:00;100585.72;;;22.61;39.72
21203;BME280;10759;51.982;9.232;2023-06-14T12:11:32;100567.88;;;22.25;39.55
21203;BME280;10759;51.982;9.232;2023-06-14T12:14:00;100590.91;;;22.32;39.76
21203;BME280;10759;51.982;9.232;2023-06-14T12:16:33;100596.13;;;22.67;39.89
21203;BME280;10759;51.982;9.232;2023-06-14T12:19:09;100594.56;;;22.54;40.36
21203;BME280;10759;51.982;9.232;2023-06-14T12:21:40;100577.81;;;22.79;40.31
21203;BME280;10759;51.982;9.232;2023-06-14T12:24:09;100580.47;;;22.37;40.53
21203;BME280;10759;51.982;9.232;2023-06-14T12:26:40;100569.88;;;22.76;40.07
21203;BME280;10759;51.982;9.232;2023-06-14T12:29:08;100586.91;;;23.22;39.99
21203;BME280;10759;51.982;9.232;2023-06-14T12:31:37;100577.72;;;23.02;39.03
21203;BME280;10759;51.982;9.232;2023-06-14T12:34:05;100574.94;;;22.81;39.79
21203;BME280;10759;51.982;9.232;2023-06-14T12:36:33;100580.75;;;23.29;40.24
21203;BME280;10759;51.982;9.232;2023-06-14T12:39:08;100579.22;;;23.36;39.70
21203;BME280;10759;51.982;9.232;2023-06-14T12:41:36;100582.75;;;23.79;39.34
21203;BME280;10759;51.982;9.232;2023-06-14T12:44:04;100580.59;;;23.83;38.84
21203;BME280;10759;51.982;9.232;2023-06-14T12:46:32;100563.47;;;23.81;38.04
21203;BME280;10759;51.982;9.232;2023-06-14T12:49:01;100566.16;;;24.31;38.06
21203;BME280;10759;51.982;9.232;2023-06-14T12:51:29;100577.69;;;24.34;37.71
21203;BME280;10759;51.982;9.232;2023-06-14T12:53:57;100567.59;;;24.35;38.07
21203;BME280;10759;51.982;9.232;2023-06-14T12:56:26;100579.09;;;24.19;39.37
21203;BME280;10759;51.982;9.232;2023-06-14T12:58:54;100586.34;;;23.49;38.31
21203;BME280;10759;51.982;9.232;2023-06-14T13:01:22;100578.94;;;23.70;39.32
21203;BME280;10759;51.982;9.232;2023-06-14T13:03:50;100574.94;;;23.44;38.99
21203;BME280;10759;51.982;9.232;2023-06-14T13:06:20;100562.53;;;23.70;38.70
21203;BME280;10759;51.982;9.232;2023-06-14T13:08:48;100566.66;;;23.86;37.63